Middlesboro, Kentucky
Current Conditions -  °F | °C
As of 10:55 PM on Tuesday 27 Jan 2015 (Local Time) from K1A6 Reporting Station
Overcast Overcast  
Wind Chill: 21°   Ceiling: 3100
Heat Index: 29°   Visibility: 10mi
Dew Point: 20°   Wind: 7mph
Humidity: 72%   Direction: 360°N
Pressure: 30.18"   Gusts: NA
Location:  36.61°N, 83.72°W
Report Text: K1A6 280355Z AUTO 36006KT 10SM OVC031 M02/M06 A3018 RMK AO2 T10191064
Loading
Personal Weather Stations






























Interactive Weather Map New forecast layout! Learn more

10-Day Weather Forecast

Advertisements
Track Severe Weather on mobile